Time;durP1;ratioP1;P1;durP2;ratioP2;P2;SDS_P1;SDS_P2;PMS_P1;PMS_P2;Temp;Humidity;BMP_temperature;BMP_pressure;BME280_temperature;BME280_humidity;BME280_pressure;Samples;Min_cycle;Max_cycle;Signal;HPM_P1;HPM_P2
2022/05/19 00:02:11;;;;;;;6.00;2.90;;;;;;;11.93;31.98;101154.99;107876;1269;107680;-70
2022/05/19 00:04:43;;;;;;;6.00;3.30;;;;;;;11.91;31.97;101154.69;107757;1270;138322;-70
2022/05/19 00:07:16;;;;;;;4.70;3.00;;;;;;;11.89;32.06;101156.84;107898;1270;93538;-69
2022/05/19 00:09:49;;;;;;;4.70;3.10;;;;;;;11.88;31.94;101155.83;107899;1270;109469;-70
2022/05/19 00:12:23;;;;;;;8.30;2.90;;;;;;;11.87;31.96;101154.10;107710;1270;138780;-70
2022/05/19 00:14:56;;;;;;;4.90;3.10;;;;;;;11.85;32.01;101157.27;107901;1270;107674;-70
2022/05/19 00:17:28;;;;;;;6.80;3.00;;;;;;;11.83;32.14;101157.80;107752;1270;138452;-70
2022/05/19 00:20:00;;;;;;;6.60;2.70;;;;;;;11.82;31.98;101154.54;107894;1270;93270;-70
2022/05/19 00:22:32;;;;;;;4.30;2.40;;;;;;;11.81;31.90;101151.77;107798;1270;138134;-70
2022/05/19 00:25:04;;;;;;;3.40;2.90;;;;;;;11.80;31.83;101152.66;107911;1270;108933;-70
2022/05/19 00:27:36;;;;;;;7.30;2.80;;;;;;;11.80;31.71;101151.43;107865;1269;108778;-70
2022/05/19 00:30:10;;;;;;;5.40;2.80;;;;;;;11.79;31.97;101151.11;107770;1270;137737;-69
2022/05/19 00:32:42;;;;;;;5.00;3.20;;;;;;;11.76;31.90;101147.84;107909;1269;93706;-70
2022/05/19 00:35:14;;;;;;;6.80;2.80;;;;;;;11.73;31.95;101149.48;107778;1269;137409;-70
2022/05/19 00:37:46;;;;;;;6.60;2.80;;;;;;;11.70;32.02;101148.52;107893;1269;106448;-70
2022/05/19 00:40:20;;;;;;;5.40;2.80;;;;;;;11.67;32.13;101150.50;107814;1269;138258;-72
2022/05/19 00:42:52;;;;;;;5.30;2.50;;;;;;;11.65;31.97;101151.39;107726;1270;94407;-70
2022/05/19 00:45:27;;;;;;;7.40;2.90;;;;;;;11.63;32.10;101145.36;106401;1270;95561;-68
2022/05/19 00:48:03;;;;;;;8.10;3.20;;;;;;;11.60;32.12;101145.08;107794;1270;137219;-69
2022/05/19 00:50:42;;;;;;;5.70;3.10;;;;;;;11.59;31.98;101141.45;106913;1270;109284;-69
2022/05/19 00:53:21;;;;;;;7.70;2.90;;;;;;;11.59;32.12;101141.63;106267;1270;138389;-69
2022/05/19 00:55:54;;;;;;;6.00;3.00;;;;;;;11.56;32.12;101144.64;106386;1270;95141;-69
2022/05/19 00:58:31;;;;;;;8.10;3.50;;;;;;;11.55;32.25;101147.98;106281;1270;137424;-69
2022/05/19 01:01:04;;;;;;;5.30;3.10;;;;;;;11.52;32.20;101152.23;106400;1270;109931;-69
2022/05/19 01:03:46;;;;;;;10.80;3.10;;;;;;;11.50;32.32;101151.58;106370;1270;109168;-69
2022/05/19 01:06:20;;;;;;;6.90;3.00;;;;;;;11.48;32.36;101147.07;106247;1270;137919;-70
2022/05/19 01:08:56;;;;;;;7.30;3.00;;;;;;;11.46;32.48;101147.98;106386;1270;96465;-70
2022/05/19 01:11:30;;;;;;;6.40;3.60;;;;;;;11.42;32.61;101148.94;107784;1270;137386;-70
2022/05/19 01:14:03;;;;;;;6.90;3.70;;;;;;;11.39;32.68;101154.93;107895;1270;111088;-70
2022/05/19 01:16:35;;;;;;;6.40;2.80;;;;;;;11.35;32.74;101159.02;106414;1270;137675;-69
2022/05/19 01:19:21;;;;;;;6.40;3.50;;;;;;;11.31;32.63;101154.39;106213;1270;108450;-68
2022/05/19 01:21:57;;;;;;;8.00;3.80;;;;;;;11.28;32.75;101158.63;106332;1270;96561;-69
2022/05/19 01:24:37;;;;;;;10.70;3.70;;;;;;;11.26;32.78;101157.98;107587;1269;137093;-69
2022/05/19 01:27:09;;;;;;;5.10;3.10;;;;;;;11.24;32.74;101163.60;106373;1270;110824;-69
2022/05/19 01:29:41;;;;;;;10.30;3.40;;;;;;;11.22;32.78;101164.35;106228;1270;137659;-69
2022/05/19 01:32:25;;;;;;;6.50;3.10;;;;;;;11.19;32.91;101164.75;107767;1270;108213;-70
2022/05/19 01:34:58;;;;;;;6.70;3.50;;;;;;;11.15;32.98;101161.52;107805;1270;137630;-69
2022/05/19 01:37:30;;;;;;;5.50;3.00;;;;;;;11.11;33.02;101154.63;107916;1270;94494;-70
2022/05/19 01:40:30;;;;;;;4.60;2.80;;;;;;;11.04;33.07;101155.13;107814;1270;139004;-69
2022/05/19 01:43:12;;;;;;;10.20;3.50;;;;;;;11.00;33.13;101152.08;107884;1269;109051;-70
2022/05/19 01:45:52;;;;;;;13.90;7.60;;;;;;;10.96;33.17;101151.11;107445;1270;106777;-68
2022/05/19 01:48:37;;;;;;;17.50;9.90;;;;;;;10.93;33.22;101152.90;106290;1270;137557;-70
2022/05/19 01:51:15;;;;;;;25.50;14.60;;;;;;;10.89;33.30;101153.14;106341;1270;96476;-70
2022/05/19 01:53:59;;;;;;;43.90;25.20;;;;;;;10.87;33.45;101153.19;106289;1270;137638;-68
2022/05/19 01:56:38;;;;;;;60.90;31.10;;;;;;;10.85;33.57;101156.72;107856;1269;108787;-70
2022/05/19 01:59:17;;;;;;;53.00;27.50;;;;;;;10.83;33.59;101158.14;107766;1269;137988;-69
2022/05/19 02:01:59;;;;;;;36.80;19.30;;;;;;;10.79;33.69;101159.27;107841;1268;94770;-69
2022/05/19 02:04:39;;;;;;;33.50;18.90;;;;;;;10.74;33.73;101164.02;107804;1269;137940;-69
2022/05/19 02:07:15;;;;;;;27.50;16.70;;;;;;;10.69;33.85;101163.79;107920;1270;109109;-69
2022/05/19 02:09:51;;;;;;;26.80;13.10;;;;;;;10.67;33.95;101161.05;107900;1270;109184;-69
2022/05/19 02:12:24;;;;;;;21.60;11.10;;;;;;;10.64;34.08;101164.23;107793;1270;137972;-70
2022/05/19 02:15:00;;;;;;;19.60;9.80;;;;;;;10.63;34.17;101167.91;107885;1270;94622;-69
2022/05/19 02:17:33;;;;;;;21.00;9.10;;;;;;;10.62;34.27;101160.80;107779;1269;138317;-69
2022/05/19 02:20:10;;;;;;;17.90;8.00;;;;;;;10.59;34.32;101160.99;107796;1270;110119;-69
2022/05/19 02:22:44;;;;;;;20.30;8.80;;;;;;;10.56;34.47;101159.98;107779;1269;138327;-69
2022/05/19 02:25:22;;;;;;;15.30;6.70;;;;;;;10.50;34.60;101156.83;107897;1270;107826;-69
2022/05/19 02:27:57;;;;;;;15.70;8.00;;;;;;;10.43;34.73;101149.48;107896;1270;94796;-69
2022/05/19 02:30:34;;;;;;;12.50;6.70;;;;;;;10.35;34.83;101149.95;107775;1270;138523;-69
2022/05/19 02:33:07;;;;;;;17.90;7.20;;;;;;;10.27;34.93;101151.64;106789;1270;111193;-69
2022/05/19 02:35:39;;;;;;;12.60;5.70;;;;;;;10.22;35.12;101150.84;107790;1269;137782;-70
2022/05/19 02:38:11;;;;;;;11.90;5.50;;;;;;;10.16;35.30;101150.91;107840;1270;108598;-69
2022/05/19 02:40:44;;;;;;;8.40;5.00;;;;;;;10.09;35.35;101146.69;107772;1270;139759;-70
2022/05/19 02:43:17;;;;;;;11.80;4.20;;;;;;;10.05;35.45;101148.48;107502;1269;96485;-69
2022/05/19 02:45:50;;;;;;;12.90;4.80;;;;;;;10.00;35.35;101145.25;107911;1270;111050;-70
2022/05/19 02:48:23;;;;;;;15.10;4.60;;;;;;;9.97;35.56;101148.95;107804;1270;137759;-69
2022/05/19 02:50:55;;;;;;;7.90;4.10;;;;;;;9.95;35.66;101141.86;107904;1270;108767;-69
2022/05/19 02:53:27;;;;;;;5.20;3.50;;;;;;;9.94;35.80;101140.66;107712;1270;137344;-69
2022/05/19 02:56:00;;;;;;;11.10;4.10;;;;;;;9.93;35.78;101145.90;106335;1270;96561;-70
2022/05/19 02:58:33;;;;;;;6.60;3.40;;;;;;;9.92;35.91;101143.48;107797;1270;137601;-69
2022/05/19 03:01:09;;;;;;;8.00;3.80;;;;;;;9.92;36.02;101141.92;107937;1270;108797;-69
2022/05/19 03:03:41;;;;;;;7.10;3.60;;;;;;;9.91;36.16;101143.67;107881;1270;109403;-69
2022/05/19 03:06:13;;;;;;;8.80;3.40;;;;;;;9.90;36.41;101146.11;107465;1270;137813;-69
2022/05/19 03:08:45;;;;;;;8.40;3.90;;;;;;;9.90;36.49;101148.20;106379;1270;96488;-68
2022/05/19 03:11:17;;;;;;;8.50;3.50;;;;;;;9.90;36.51;101144.73;106464;1270;137376;-69
2022/05/19 03:13:49;;;;;;;6.40;3.00;;;;;;;9.91;36.37;101147.84;107910;1270;108124;-69
2022/05/19 03:16:21;;;;;;;7.50;3.30;;;;;;;9.93;36.46;101147.81;107771;1270;138242;-70
2022/05/19 03:18:53;;;;;;;4.60;3.10;;;;;;;9.92;36.44;101145.56;107907;1270;94744;-70
2022/05/19 03:21:25;;;;;;;8.90;3.30;;;;;;;9.91;36.61;101144.71;107910;1270;94848;-69
2022/05/19 03:23:57;;;;;;;8.00;3.20;;;;;;;9.89;36.84;101146.83;107810;1270;137336;-69
2022/05/19 03:26:29;;;;;;;7.50;3.10;;;;;;;9.89;36.60;101150.66;107930;1270;107597;-69
2022/05/19 03:29:03;;;;;;;7.20;3.00;;;;;;;9.91;36.73;101148.89;107674;1270;137881;-69
2022/05/19 03:31:35;;;;;;;8.20;3.20;;;;;;;9.94;36.62;101146.40;106423;1270;96530;-69
2022/05/19 03:34:07;;;;;;;6.70;3.00;;;;;;;9.98;36.58;101145.11;107810;1270;137231;-68
2022/05/19 03:36:40;;;;;;;7.50;3.40;;;;;;;10.02;36.62;101142.79;107165;1270;111398;-70
2022/05/19 03:39:12;;;;;;;7.00;3.40;;;;;;;10.05;36.46;101147.45;107941;1270;108723;-70
2022/05/19 03:41:44;;;;;;;6.30;3.20;;;;;;;10.11;36.47;101149.79;107740;1270;137566;-70
2022/05/19 03:44:17;;;;;;;7.10;3.30;;;;;;;10.15;36.43;101147.63;106906;1270;95184;-70
2022/05/19 03:46:49;;;;;;;7.70;3.10;;;;;;;10.19;36.36;101151.55;107688;1270;138186;-70
2022/05/19 03:49:21;;;;;;;6.30;2.80;;;;;;;10.22;36.50;101147.19;106959;1270;110024;-69
2022/05/19 03:51:54;;;;;;;6.20;3.10;;;;;;;10.26;36.47;101143.66;107795;1269;108000;-69
2022/05/19 03:54:26;;;;;;;6.20;3.00;;;;;;;10.31;36.44;101147.77;107756;1270;137992;-70
2022/05/19 03:56:58;;;;;;;7.60;2.90;;;;;;;10.36;36.60;101148.88;106796;1270;96484;-69
2022/05/19 03:59:30;;;;;;;8.40;2.90;;;;;;;10.41;36.48;101148.45;106252;1270;138764;-69
2022/05/19 04:02:04;;;;;;;7.60;2.90;;;;;;;10.47;36.42;101149.41;106966;1270;111328;-70
2022/05/19 04:04:56;;;;;;;6.50;2.90;;;;;;;10.54;36.44;101144.91;107779;1270;137692;-70
2022/05/19 04:07:28;;;;;;;8.70;3.30;;;;;;;10.60;36.16;101149.34;107875;1270;107673;-70
2022/05/19 04:10:01;;;;;;;6.60;3.10;;;;;;;10.65;36.15;101147.16;107878;1270;94602;-69
2022/05/19 04:12:33;;;;;;;8.80;3.00;;;;;;;10.72;35.98;101151.02;107879;1270;94492;-69
2022/05/19 04:15:07;;;;;;;4.70;2.70;;;;;;;10.79;36.03;101147.60;107886;1270;111111;-69
2022/05/19 04:17:39;;;;;;;6.50;2.60;;;;;;;10.85;35.97;101150.42;107750;1270;138099;-69
2022/05/19 04:20:12;;;;;;;6.50;2.80;;;;;;;10.91;36.02;101148.73;107876;1270;108981;-69
2022/05/19 04:22:44;;;;;;;6.40;2.50;;;;;;;10.99;35.86;101147.73;107758;1270;137875;-69
2022/05/19 04:25:16;;;;;;;10.10;3.10;;;;;;;11.07;35.78;101146.02;107059;1270;96358;-69
2022/05/19 04:27:48;;;;;;;13.50;3.20;;;;;;;11.16;35.52;101142.36;107796;1270;109969;-69
2022/05/19 04:30:21;;;;;;;9.40;2.80;;;;;;;11.26;35.65;101144.05;107790;1270;137764;-69
2022/05/19 04:32:53;;;;;;;7.30;2.40;;;;;;;11.36;35.36;101143.52;107851;1270;109164;-68
2022/05/19 04:35:26;;;;;;;8.50;2.70;;;;;;;11.44;35.30;101138.27;107784;1270;137440;-68
2022/05/19 04:38:08;;;;;;;9.30;2.70;;;;;;;11.55;35.10;101138.40;107907;1270;94660;-68
2022/05/19 04:40:41;;;;;;;6.00;2.60;;;;;;;11.65;34.83;101132.94;107762;1270;138441;-69
2022/05/19 04:43:22;;;;;;;5.40;2.10;;;;;;;11.79;34.63;101135.08;107882;1270;110272;-68
2022/05/19 04:45:56;;;;;;;11.70;2.90;;;;;;;11.93;34.27;101131.45;107872;1270;108787;-68
2022/05/19 04:48:29;;;;;;;11.60;3.30;;;;;;;12.09;34.14;101132.48;107770;1270;137578;-68
2022/05/19 04:51:02;;;;;;;11.40;3.20;;;;;;;12.25;34.07;101134.16;107860;1269;94726;-68
2022/05/19 04:53:34;;;;;;;14.30;3.50;;;;;;;12.46;33.98;101133.13;107669;1270;137459;-70
2022/05/19 04:56:07;;;;;;;12.90;2.60;;;;;;;12.67;33.70;101134.13;106456;1270;107814;-70
2022/05/19 04:58:39;;;;;;;21.10;3.50;;;;;;;12.89;33.35;101134.77;106454;1271;137893;-69
2022/05/19 05:01:11;;;;;;;11.60;2.80;;;;;;;13.16;33.30;101132.60;107867;1270;95522;-70
2022/05/19 05:03:44;;;;;;;12.60;3.00;;;;;;;13.48;32.99;101135.00;107864;1270;94581;-69
2022/05/19 05:06:16;;;;;;;22.80;4.20;;;;;;;13.86;32.60;101136.10;107781;1270;138424;-69
2022/05/19 05:08:48;;;;;;;15.00;3.40;;;;;;;14.19;32.22;101135.73;107869;1269;109332;-69
2022/05/19 05:11:20;;;;;;;19.20;2.80;;;;;;;14.49;31.85;101137.56;107774;1270;137625;-69
2022/05/19 05:13:52;;;;;;;13.30;3.10;;;;;;;14.78;31.50;101135.66;107885;1271;94474;-69
2022/05/19 05:16:24;;;;;;;11.60;3.20;;;;;;;15.05;31.23;101134.68;107792;1270;138526;-69
2022/05/19 05:18:56;;;;;;;17.70;3.40;;;;;;;15.35;30.79;101125.69;107906;1270;111227;-70
2022/05/19 05:21:28;;;;;;;14.50;2.50;;;;;;;15.71;30.59;101128.88;107899;1270;106674;-71
2022/05/19 05:24:00;;;;;;;13.00;2.40;;;;;;;16.01;29.69;101121.20;107698;1270;138925;-68
2022/05/19 05:26:32;;;;;;;7.50;2.60;;;;;;;16.66;29.43;101123.52;106400;1271;96568;-69
2022/05/19 05:29:04;;;;;;;16.70;2.90;;;;;;;18.01;28.75;101118.52;107768;1270;137534;-69
2022/05/19 05:31:36;;;;;;;8.50;2.30;;;;;;;19.87;27.65;101113.56;106442;1270;111145;-69
2022/05/19 05:34:08;;;;;;;14.70;3.00;;;;;;;21.61;25.85;101108.20;107319;1270;137489;-69
2022/05/19 05:36:41;;;;;;;10.00;2.60;;;;;;;23.40;24.70;101103.23;107881;1270;108766;-70
2022/05/19 05:39:13;;;;;;;13.30;3.30;;;;;;;25.37;22.98;101103.52;107914;1270;94640;-69
2022/05/19 05:41:45;;;;;;;11.90;2.50;;;;;;;27.27;21.47;101102.90;107767;1270;137499;-70
2022/05/19 05:44:17;;;;;;;11.70;2.70;;;;;;;28.68;19.99;101100.52;107218;1270;110937;-69
2022/05/19 05:46:49;;;;;;;10.70;2.10;;;;;;;30.06;18.96;101102.96;107041;1270;137949;-70
2022/05/19 05:49:22;;;;;;;13.50;2.70;;;;;;;31.42;17.59;101097.59;107889;1270;107906;-68
2022/05/19 05:51:54;;;;;;;13.60;3.10;;;;;;;32.34;16.74;101094.23;107881;1270;95209;-69
2022/05/19 05:54:26;;;;;;;11.60;2.50;;;;;;;33.42;15.85;101093.48;107770;1270;137793;-69
2022/05/19 05:57:00;;;;;;;9.80;2.10;;;;;;;34.05;14.88;101094.30;107907;1270;110551;-70
2022/05/19 05:59:32;;;;;;;15.40;2.00;;;;;;;34.78;14.49;101100.34;107764;1269;137613;-70
2022/05/19 06:02:04;;;;;;;5.80;2.90;;;;;;;35.49;13.82;101101.36;107880;1270;107627;-70
2022/05/19 06:04:37;;;;;;;6.10;1.90;;;;;;;36.13;13.27;101099.12;107774;1270;138046;-70
2022/05/19 06:07:10;;;;;;;12.50;2.90;;;;;;;36.70;12.51;101099.13;107527;1270;96488;-67
2022/05/19 06:09:43;;;;;;;16.40;3.20;;;;;;;36.93;11.99;101096.94;106323;1270;110622;-69
2022/05/19 06:12:16;;;;;;;12.70;2.20;;;;;;;37.42;11.98;101096.40;106806;1270;138052;-69
2022/05/19 06:14:50;;;;;;;10.40;2.10;;;;;;;37.99;11.51;101092.98;106392;1270;108096;-69
2022/05/19 06:17:22;;;;;;;13.50;1.80;;;;;;;38.51;11.02;101095.52;106203;1271;137485;-69
2022/05/19 06:19:54;;;;;;;8.80;1.90;;;;;;;38.69;10.47;101098.36;106386;1271;96573;-68
2022/05/19 06:22:27;;;;;;;7.20;2.40;;;;;;;38.88;10.14;101091.13;106339;1271;137829;-67
2022/05/19 06:24:59;;;;;;;5.80;1.90;;;;;;;38.95;9.95;101088.80;107892;1270;108875;-69
2022/05/19 06:27:31;;;;;;;7.70;1.50;;;;;;;39.14;9.91;101090.17;107912;1270;108854;-68
2022/05/19 06:30:04;;;;;;;7.90;1.70;;;;;;;39.47;9.57;101095.81;107771;1270;139053;-68
2022/05/19 06:32:36;;;;;;;4.90;1.80;;;;;;;40.06;9.36;101088.42;107913;1270;94746;-68
2022/05/19 06:35:10;;;;;;;8.10;2.00;;;;;;;40.56;9.13;101084.16;107796;1269;137109;-68
2022/05/19 06:37:42;;;;;;;6.20;1.70;;;;;;;40.71;8.72;101077.27;106481;1270;108504;-68
2022/05/19 06:40:15;;;;;;;6.40;2.10;;;;;;;40.73;8.46;101077.61;106279;1270;137890;-67
2022/05/19 06:42:49;;;;;;;10.20;1.60;;;;;;;40.79;8.49;101085.70;106392;1271;96488;-68
2022/05/19 06:45:25;;;;;;;5.70;1.80;;;;;;;40.49;8.27;101083.60;107932;1270;94483;-68
2022/05/19 06:47:57;;;;;;;8.90;2.10;;;;;;;40.30;8.45;101088.48;107762;1270;137170;-68
2022/05/19 06:50:30;;;;;;;6.90;1.90;;;;;;;40.23;8.29;101094.09;106631;1270;108898;-67
2022/05/19 06:53:03;;;;;;;3.50;1.50;;;;;;;40.32;8.24;101093.76;106260;1271;137217;-67
2022/05/19 06:55:37;;;;;;;6.90;2.00;;;;;;;40.08;7.67;101089.84;107365;1270;96573;-67
2022/05/19 06:58:09;;;;;;;6.50;1.90;;;;;;;39.90;7.92;101090.17;106289;1268;137141;-67
2022/05/19 07:00:41;;;;;;;7.70;1.50;;;;;;;40.11;8.05;101088.39;106430;1271;110002;-68
2022/05/19 07:03:13;;;;;;;9.60;2.10;;;;;;;40.18;7.49;101082.32;107920;1270;109010;-68
2022/05/19 07:05:46;;;;;;;9.50;1.80;;;;;;;40.26;7.47;101080.10;107668;1271;137211;-68
2022/05/19 07:08:18;;;;;;;12.50;1.80;;;;;;;40.54;7.51;101079.38;107800;1271;94883;-68
2022/05/19 07:10:50;;;;;;;7.20;1.70;;;;;;;40.50;7.33;101074.05;107805;1270;137393;-68
2022/05/19 07:13:22;;;;;;;9.70;1.50;;;;;;;40.65;7.44;101068.84;107929;1270;110059;-68
2022/05/19 07:15:54;;;;;;;6.80;2.00;;;;;;;40.63;7.19;101071.18;107913;1270;109557;-68
2022/05/19 07:18:26;;;;;;;5.50;1.90;;;;;;;40.81;7.26;101069.83;107793;1270;137020;-68
2022/05/19 07:20:58;;;;;;;5.20;1.80;;;;;;;40.63;6.90;101071.89;107769;1271;94875;-68
2022/05/19 07:23:32;;;;;;;8.20;1.80;;;;;;;40.39;7.06;101071.42;107793;1270;136973;-68
2022/05/19 07:26:05;;;;;;;5.10;1.60;;;;;;;40.57;6.77;101067.55;107176;1270;109884;-67
2022/05/19 07:28:37;;;;;;;6.90;1.40;;;;;;;40.65;6.91;101067.73;107807;1270;138280;-68
2022/05/19 07:31:09;;;;;;;4.50;1.70;;;;;;;40.74;6.91;101059.48;106830;1271;108890;-67
2022/05/19 07:33:41;;;;;;;2.80;1.20;;;;;;;40.64;6.86;101062.66;107883;1270;94784;-69
2022/05/19 07:36:13;;;;;;;9.10;1.40;;;;;;;40.53;6.87;101060.76;107768;1270;137444;-68
2022/05/19 07:38:45;;;;;;;5.60;1.80;;;;;;;40.76;7.00;101062.84;107908;1270;110241;-68
2022/05/19 07:41:17;;;;;;;4.20;1.40;;;;;;;40.64;6.71;101062.88;107814;1270;137155;-68
2022/05/19 07:43:49;;;;;;;7.90;2.80;;;;;;;40.49;6.68;101057.07;107894;1270;107936;-68
2022/05/19 07:46:21;;;;;;;8.10;1.60;;;;;;;40.42;6.72;101055.45;107702;1270;137303;-68
2022/05/19 07:48:54;;;;;;;5.90;2.80;;;;;;;39.96;6.68;101059.08;107882;1269;94738;-69
2022/05/19 07:51:29;;;;;;;4.70;1.40;;;;;;;39.94;6.70;101054.23;107935;1270;111309;-68
2022/05/19 07:54:01;;;;;;;5.20;1.20;;;;;;;40.10;6.82;101051.58;107768;1269;137417;-68
2022/05/19 07:56:33;;;;;;;4.30;1.20;;;;;;;40.17;6.61;101051.35;106690;1270;109124;-68
2022/05/19 07:59:07;;;;;;;4.80;1.40;;;;;;;40.27;6.48;101046.69;107752;1270;137128;-68
2022/05/19 08:01:41;;;;;;;3.50;1.40;;;;;;;40.43;6.63;101047.48;107912;1270;94951;-68
2022/05/19 08:04:14;;;;;;;3.00;1.20;;;;;;;40.67;6.62;101047.52;107649;1271;137450;-68
2022/05/19 08:06:46;;;;;;;5.70;1.20;;;;;;;40.69;6.21;101047.40;107872;1270;111016;-68
2022/05/19 08:12:15;;;;;;;5.90;1.40;;;;;;;41.00;6.50;101041.60;107320;1270;137226;-67
2022/05/19 08:17:38;;;;;;;5.80;1.10;;;;;;;40.83;6.38;101043.95;107779;1270;137557;-67
2022/05/19 08:20:15;;;;;;;3.00;1.10;;;;;;;40.63;6.11;101045.52;107859;1271;107867;-68
2022/05/19 08:22:48;;;;;;;7.20;1.90;;;;;;;40.15;6.27;101051.10;107762;1270;137256;-68
2022/05/19 08:25:24;;;;;;;1.70;1.10;;;;;;;39.54;6.39;101052.68;107870;1270;94669;-68
2022/05/19 08:27:57;;;;;;;6.70;1.30;;;;;;;38.96;6.39;101049.27;107880;1270;94701;-69
2022/05/19 08:30:30;;;;;;;5.00;1.60;;;;;;;38.70;6.39;101048.23;107776;1270;137359;-68
2022/05/19 08:33:04;;;;;;;8.90;1.20;;;;;;;38.50;6.71;101046.40;107855;1270;109050;-68
2022/05/19 08:35:36;;;;;;;6.90;2.30;;;;;;;38.06;6.85;101034.02;107655;1270;138341;-67
2022/05/19 08:38:09;;;;;;;4.90;1.90;;;;;;;38.21;7.03;101033.95;106624;1271;96577;-67
2022/05/19 08:40:46;;;;;;;4.40;1.40;;;;;;;38.15;6.71;101036.34;107786;1269;137279;-68
2022/05/19 08:43:20;;;;;;;8.20;2.80;;;;;;;38.04;6.86;101032.09;106984;1271;110149;-67
2022/05/19 08:45:56;;;;;;;2.40;1.00;;;;;;;37.86;6.91;101044.52;107941;1270;109505;-68
2022/05/19 08:48:30;;;;;;;3.60;2.00;;;;;;;37.45;6.90;101038.45;107799;1270;137120;-67
2022/05/19 08:51:05;;;;;;;5.00;1.30;;;;;;;37.58;6.83;101030.05;107036;1270;96359;-68
2022/05/19 08:53:39;;;;;;;5.90;1.60;;;;;;;37.27;6.91;101033.77;107810;1270;137327;-67
2022/05/19 08:56:19;;;;;;;5.50;1.60;;;;;;;36.87;7.16;101030.23;107913;1271;110855;-67
2022/05/19 08:59:05;;;;;;;7.30;1.40;;;;;;;36.94;7.35;101021.77;107813;1269;137509;-67
2022/05/19 09:01:47;;;;;;;4.10;1.40;;;;;;;36.91;7.47;101023.02;107326;1271;107688;-68
2022/05/19 09:04:34;;;;;;;2.20;1.20;;;;;;;36.97;7.47;101019.48;107683;1270;187965;-68
2022/05/19 09:10:17;;;;;;;5.10;1.40;;;;;;;36.58;7.23;101015.20;107909;1268;111309;-68
2022/05/19 09:12:56;;;;;;;7.20;1.50;;;;;;;36.13;7.49;101015.10;107504;1268;108854;-68
2022/05/19 09:15:28;;;;;;;6.30;1.50;;;;;;;35.92;7.68;101010.39;107326;1270;108616;-67
2022/05/19 09:18:00;;;;;;;7.50;1.10;;;;;;;35.85;7.86;101013.36;107781;1271;137072;-68
2022/05/19 09:20:41;;;;;;;13.40;1.70;;;;;;;35.84;7.86;101022.41;107920;1269;94838;-68
2022/05/19 09:23:13;;;;;;;4.90;1.60;;;;;;;36.15;8.06;101015.95;107634;1270;137179;-67
2022/05/19 09:25:51;;;;;;;4.90;1.60;;;;;;;36.40;7.77;101010.55;106346;1271;108844;-67
2022/05/19 09:28:23;;;;;;;4.70;1.60;;;;;;;36.16;7.90;101013.66;106260;1271;137478;-67
2022/05/19 09:30:57;;;;;;;6.60;1.70;;;;;;;36.11;7.90;101008.13;107887;1270;94633;-68
2022/05/19 09:33:37;;;;;;;6.50;3.30;;;;;;;36.01;7.73;101001.65;107920;1270;94699;-68
2022/05/19 09:36:14;;;;;;;6.50;1.50;;;;;;;35.63;7.88;101008.06;107795;1271;137317;-68
2022/05/19 09:38:50;;;;;;;2.50;1.20;;;;;;;35.41;7.90;101004.52;107897;1269;108151;-68
2022/05/19 09:41:27;;;;;;;5.90;1.90;;;;;;;35.35;8.17;100996.75;107749;1270;137376;-68
2022/05/19 09:44:00;;;;;;;4.60;1.20;;;;;;;35.46;8.01;100997.50;107879;1269;94951;-68
2022/05/19 09:46:42;;;;;;;4.40;1.60;;;;;;;35.40;8.05;101001.01;107790;1271;138211;-68
2022/05/19 09:49:26;;;;;;;5.40;1.60;;;;;;;35.23;8.25;100993.16;107920;1271;109951;-68
2022/05/19 09:52:04;;;;;;;6.70;1.50;;;;;;;35.27;8.35;100990.94;107592;1271;108856;-68
2022/05/19 09:54:37;;;;;;;3.70;2.00;;;;;;;35.37;8.22;100981.55;107044;1270;107816;-68
2022/05/19 09:57:25;;;;;;;3.70;1.70;;;;;;;35.26;8.26;100986.38;106332;1271;96483;-67
2022/05/19 10:00:04;;;;;;;5.30;1.90;;;;;;;34.96;8.57;100977.49;107800;1269;137669;-68
2022/05/19 10:02:46;;;;;;;6.40;2.70;;;;;;;34.71;8.61;100977.66;107877;1268;110097;-68
2022/05/19 10:05:46;;;;;;;6.90;1.90;;;;;;;34.92;8.87;100976.11;107786;1270;137121;-68
2022/05/19 10:08:20;;;;;;;5.40;1.60;;;;;;;34.77;8.33;100978.12;107909;1270;108897;-67
2022/05/19 10:11:00;;;;;;;8.20;2.00;;;;;;;34.54;8.71;100975.57;107768;1269;137378;-68
2022/05/19 10:13:39;;;;;;;5.60;1.70;;;;;;;34.44;8.50;100968.09;107937;1270;94858;-68
2022/05/19 10:16:20;;;;;;;5.40;1.50;;;;;;;33.75;8.84;100963.11;107806;1269;137177;-68
2022/05/19 10:19:11;;;;;;;9.90;2.30;;;;;;;33.21;8.92;100961.41;106599;1269;107824;-68
2022/05/19 10:22:03;;;;;;;5.60;2.00;;;;;;;33.18;9.46;100961.18;106340;1271;108290;-68
2022/05/19 10:25:08;;;;;;;10.10;3.30;;;;;;;33.33;9.51;100946.60;107800;1271;94885;-68
2022/05/19 10:31:04;;;;;;;3.50;1.70;;;;;;;33.45;9.60;100936.77;107721;1269;111123;-70
2022/05/19 10:33:59;;;;;;;4.80;2.20;;;;;;;33.18;9.40;100938.73;106396;1271;109000;-67
2022/05/19 10:36:42;;;;;;;7.00;2.00;;;;;;;32.84;9.32;100932.14;106211;1271;138457;-66
2022/05/19 10:39:30;;;;;;;4.70;2.00;;;;;;;32.57;9.52;100924.25;106417;1269;96510;-69
2022/05/19 10:42:13;;;;;;;7.10;2.70;;;;;;;32.04;9.67;100929.59;107799;1269;137080;-67
2022/05/19 10:45:24;;;;;;;3.40;1.80;;;;;;;31.59;10.03;100926.63;107910;1270;111166;-67
2022/05/19 10:48:32;;;;;;;7.10;1.90;;;;;;;31.14;10.17;100917.35;107379;1276;138267;-68
2022/05/19 10:51:08;;;;;;;4.30;1.90;;;;;;;30.74;10.35;100916.11;107448;1276;108860;-67
2022/05/19 10:53:57;;;;;;;5.90;2.40;;;;;;;30.54;10.52;100911.44;107356;1276;137629;-67
2022/05/19 10:56:53;;;;;;;5.60;2.50;;;;;;;30.28;10.24;100914.21;107029;1276;96546;-67
2022/05/19 10:59:48;;;;;;;7.00;2.30;;;;;;;29.85;10.21;100911.80;107378;1275;137413;-67
2022/05/19 11:02:42;;;;;;;10.10;3.30;;;;;;;29.67;10.47;100913.19;107481;1276;109227;-68
2022/05/19 11:05:34;;;;;;;6.50;2.30;;;;;;;29.60;10.71;100908.73;107337;1276;137593;-68
2022/05/19 11:08:15;;;;;;;5.60;1.90;;;;;;;29.55;10.67;100897.95;106699;1276;96446;-68
2022/05/19 11:10:55;;;;;;;13.30;2.40;;;;;;;29.36;10.48;100900.17;107368;1276;138616;-68
2022/05/19 11:13:44;;;;;;;7.10;2.40;;;;;;;29.15;10.19;100901.52;107518;1275;110666;-68
2022/05/19 11:16:26;;;;;;;6.10;2.60;;;;;;;28.66;10.65;100890.16;107405;1275;137849;-67
2022/05/19 11:19:03;;;;;;;3.70;2.20;;;;;;;28.57;11.19;100885.81;107481;1275;105576;-68
2022/05/19 11:21:36;;;;;;;;;;;;;;;28.62;11.32;100874.92;107479;1276;95058;-67
2022/05/19 11:24:14;;;;;;;10.40;4.40;;;;;;;28.73;11.35;100871.89;107498;1270;124925;-68
2022/05/19 11:26:51;;;;;;;6.40;3.10;;;;;;;29.01;11.52;100866.08;107908;1271;110207;-68
2022/05/19 11:29:32;;;;;;;8.80;2.30;;;;;;;29.14;11.40;100864.40;107774;1269;137555;-67
2022/05/19 11:32:09;;;;;;;8.80;2.20;;;;;;;29.14;11.15;100868.16;107881;1270;109132;-68
2022/05/19 11:34:46;;;;;;;10.50;1.90;;;;;;;28.71;11.23;100859.58;107761;1270;137566;-68
2022/05/19 11:37:20;;;;;;;;;;;;;;;28.49;11.24;100853.33;107879;1270;94690;-67
2022/05/19 11:40:06;;;;;;;9.40;2.30;;;;;;;28.45;11.36;100859.96;107916;1270;110381;-68
2022/05/19 11:42:45;;;;;;;5.70;2.50;;;;;;;28.19;11.79;100851.73;107449;1269;109504;-67
2022/05/19 11:45:23;;;;;;;5.90;2.60;;;;;;;28.00;11.92;100853.80;107898;1270;108111;-67
2022/05/19 11:56:36;;;;;;;;;;;;;;;27.21;12.55;100829.27;107880;1270;107609;-68
2022/05/19 11:59:11;;;;;;;;;;;;;;;27.54;12.96;100829.16;107792;1269;124296;-67
2022/05/19 12:01:44;;;;;;;;;;;;;;;27.89;12.43;100832.13;107899;1270;94880;-66
2022/05/19 12:04:19;;;;;;;;;;;;;;;28.00;12.40;100827.02;107823;1270;124410;-66
2022/05/19 12:06:54;;;;;;;;;;;;;;;28.14;12.02;100828.60;107929;1270;111140;-67
2022/05/19 12:09:27;;;;;;;;;;;;;;;28.17;12.07;100822.05;107944;1269;108819;-67
2022/05/19 12:12:00;;;;;;;;;;;;;;;28.25;12.00;100812.55;107784;1268;124297;-69
2022/05/19 12:14:35;;;;;;;;;;;;;;;28.36;11.71;100809.58;107581;1270;94464;-67